Etusivu
METAR-TAF:

METAR-TAF

Lentoasemat :

Berlevåg, Norja

Leveyspiiri: 70-52N, Pituuspiiri: 029-02E, korkeus merenpinnasta: 1 m

Tämänhetkinen sää

Tämä raportti tehtiin 40 minuuttia sitten, kello 08.50 UTC
Tuuli 18 kn etelästä
Lämpötila 17°C
Kosteus 77%
Ilmanpaine 1003 hPa
Näkyvyys 10 km tai enemmän
Muutamia pilviä 2500 ft:n korkeudessa
Hajonneita pilviä 7000 ft:n korkeudessa

METAR: ENBV 170850Z 19018KT 9999 FEW025 BKN070 17/13 Q1003

Aika: 11:30 (09:30 UTC)

Sääennuste

Tämä raportti tehtiin 1 tunti ja 30 minuuttia sitten, kello 08.00 UTC
Ennuste voimassa 17. päivästä klo 09 UTC - 17. päivään klo 18 UTC
Tuuli 15 kn etelästä
Näkyvyys 10 km tai enemmän
Muutamia pilviä 2000 ft:n korkeudessa
Hajonneita pilviä 4000 ft:n korkeudessa
Ajoittain
17. päivästä klo 09 UTC - 17. päivään klo 18 UTC
Tuuli 20 kn etelästä puuskistuen 30 kn:hen

TAF: ENBV 170800Z 1709/1718 19015KT 9999 FEW020 BKN040 TEMPO 1709/1718 18020G30KT

Säähavainnot ja -ennusteet yli 4000 lentoasemalta (METAR- ja TAF-raportit).

Käytössä olevat sääasemat on merkitty karttaan keltaisilla ja punaisilla pisteillä.

Aseta hiiri pisteen päälle nähdäksesi sääaseman nimen.

Klikkaa sitten nähdäksesi säähavainnot ja -ennusteet.

Kartan vaihtaminen: klikkaa mustalla rastilla varustettuja vihreitä pisteitä, niin voit zoomata sisään; viivalla varustettua vihreää pistettä, niin voit zoomata ulos tai vihreitä nuolia, niin pääset viereisille kartoille.


METAR-TAF: